Pagrindinis puslapis
METAR-TAF:

METAR-TAF

Oro uostai :

Bolcanas, Italija

platuma: 46-28N, ilguma: 011-20E, Aukštis: 262 m

Dabartinis oras

Ataskaita buvo paskelbta 46 minutes, ne 10:50 UTC
Vėjas 2 kt nuo kintamojo kryptimis
Temperatūra 22°C
Drėgmė 41%
Slėgis 1023 hPa
Matomumas 10 km arba daugiau
nėra debesų žemiau 1500 m ir nėra kamuolinių lietaus debesų

METAR: LIPB 211050Z VRB02KT CAVOK 22/08 Q1023 RMK MON LIB

Laikas: 13:36 (11:36 UTC)

Prognozė

Ataskaita buvo paskelbta 6 valandos ir 36 minutes, ne 05:00 UTC
Prognozė galioja nuo 21 metu 06 UTC su 22 metu 06 UTC
Vėjas 5 kt nuo kintamojo kryptimis
Matomumas 10 km arba daugiau
Išsisklaidę debesys ne aukštis 5000 ft

TAF: LIPB 210500Z 2106/2206 VRB05KT 9999 SCT050

Orai ataskaitas ir orų prognozės (METAR, TAF).

turimą stotys yra geltonos ir raudonos taškus žemėlapyje.

Perkelti pele per norėdami pamatyti stoties vardą.

Tada spustelėkite, norėdami matyti oro stebėjimo ir prognozės.

Norėdami pakeisti žemėlapį: spustelėkite ant žalios mygtukų su juodo kryžiaus žemyn,; žalią mygtuką su brūkšneliu, jei norite nutolinti; arba žalių rodyklių gretimoms žemėlapius.


METAR-TAF: